Flight Number: EUR1438 Duration: 0:45
Departure: Gatwick Airport (EGKK) at 07:00 Distance: 197 Nm
Arrival: Amsterdam Schiphol (EHAM) at 07:45 Equipment: B737

Weather Information
London / Gatwick Airport, United Kingdom (EGKK) 51-09N 000-11W 0M Jan 21, 2019 - 06:50 AM EST / 2019.01.21 1150 UTC
Wind: from the SW (230 degrees) at 3 MPH (3 KT):0
Visibility: 2 mile(s):0
Sky conditions: mostly clear Weather: haze Temperature: 37 F (3 C) Dew Point: 33 F (1 C) Relative Humidity: 86% Pressure (altimeter): 30.21 in. Hg (1023 hPa)
ob: EGKK 211150Z 23003KT 4000 HZ FEW032 03/01 Q1023 cycle: 12
Sunrise: 07:56 Sunset: 16:27 (UTC)

Amsterdam Airport Schiphol, Netherlands (EHAM) 52-18N 004-46E -2M Jan 21, 2019 - 06:55 AM EST / 2019.01.21 1155 UTC
Wind: from the SW (220 degrees) at 10 MPH (9 KT):0
Visibility: greater than 7 mile(s):0
Sky conditions: mostly clear Temperature: 39 F (4 C) Dew Point: 33 F (1 C) Relative Humidity: 80% Pressure (altimeter): 30.18 in. Hg (1022 hPa)
ob: EHAM 211155Z 22009KT 9999 FEW022 04/01 Q1022 NOSIG cycle: 12
Sunrise: 07:41 Sunset: 16:03 (UTC)

TAF:2019/01/21 12:27 TAF TAF EHAM 211121Z 2112/2218 20009KT 9999 SCT030 BECMG 2203/2206 17015KT BECMG 2209/2211 4000 -SN BKN010 PROB40 2210/2214 2000 SN VV005 BECMG 2212/2215 18010KT BR BKN005 PROB30 2214/2218 2000 BKN003 PROB30 TEMPO 2214/2218 3000 SHRASN BKN004 FEW020CB

Previous Pireps for this route
Date Aircraft Flight time Fuel used Landing rate On time
2013-01-16B7370.3939000Charter
2013-07-21DHC81.1028580No
2014-02-24A32101.4692460Charter
2014-10-04B7371.0848000No
2014-10-15DHC80.5911850Yes
2015-04-15B7770.53134980Charter
2015-04-19B1900D00.51754-157Charter
2015-05-09B7770,486780-53Charter
2015-05-09B7770.4867800Charter
2015-05-25B7370.5059150No
2015-06-11DHC80.558890Yes
2015-10-09B73700.576900-322Charter
2015-12-30B73701.046566-444Yes
2016-06-12B73700.595220-100No
2016-09-14B7370-50No
2016-11-11B7771.3050000Charter
2017-02-21B7370.0028480-559No
2017-10-07DHC80.591927-143No
(pireps marked green are flown by you)

Route map